Time;durP1;ratioP1;P1;durP2;ratioP2;P2;SDS_P1;SDS_P2;PMS_P1;PMS_P2;Temp;Humidity;BMP_temperature;BMP_pressure;BME280_temperature;BME280_humidity;BME280_pressure;Samples;Min_cycle;Max_cycle;Signal;HPM_P1;HPM_P2
2023/09/11 00:01:09;;;;;;;;;;;;;;;22.63;82.43;101313.47;5045519;28;19976;-65
2023/09/11 00:03:34;;;;;;;;;;;;;;;22.63;82.35;101309.94;5051224;28;19909;-65
2023/09/11 00:06:04;;;;;;;;;;;;;;;22.57;82.54;101309.16;5048662;28;19983;-65
2023/09/11 00:08:29;;;;;;;;;;;;;;;22.55;82.78;101305.66;5039201;28;19914;-65
2023/09/11 00:10:54;;;;;;;;;;;;;;;22.52;83.05;101304.81;5039203;28;20062;-65
2023/09/11 00:13:19;;;;;;;;;;;;;;;22.50;82.71;101306.63;5045261;28;20035;-65
2023/09/11 00:15:44;;;;;;;;;;;;;;;22.50;83.33;101296.03;5025771;28;20190;-65
2023/09/11 00:18:09;;;;;;;;;;;;;;;22.49;83.02;101310.19;5055285;28;20716;-65
2023/09/11 00:20:35;;;;;;;;;;;;;;;22.49;83.24;101308.44;5044494;28;19933;-64
2023/09/11 00:23:00;;;;;;;;;;;;;;;22.47;82.71;101302.25;5044389;28;19952;-64
2023/09/11 00:25:28;;;;;;;;;;;;;;;22.43;83.01;101300.56;5044528;28;19913;-65
2023/09/11 00:27:53;;;;;;;;;;;;;;;22.43;83.30;101299.69;5045322;28;19913;-64
2023/09/11 00:30:18;;;;;;;;;;;;;;;;;;5043818;28;19972;-64
2023/09/11 00:32:44;;;;;;;;;;;;;;;22.37;83.22;101293.56;5042846;28;19928;-65
2023/09/11 00:35:09;;;;;;;;;;;;;;;22.35;82.80;101287.44;5044806;28;19913;-64
2023/09/11 00:37:34;;;;;;;;;;;;;;;22.32;83.60;101291.88;5046379;28;19920;-65
2023/09/11 00:39:59;;;;;;;;;;;;;;;22.25;83.32;101296.44;5043441;28;20159;-65
2023/09/11 00:42:24;;;;;;;;;;;;;;;22.11;83.32;101298.47;5041743;28;19963;-64
2023/09/11 00:44:50;;;;;;;;;;;;;;;22.05;83.67;101294.13;5043841;28;19913;-64
2023/09/11 00:47:15;;;;;;;;;;;;;;;22.01;83.68;101295.94;5044334;28;19920;-64
2023/09/11 00:49:40;;;;;;;;;;;;;;;22.04;83.77;101292.38;5053687;28;19935;-64
2023/09/11 00:52:05;;;;;;;;;;;;;;;22.04;83.83;101287.94;5043386;28;20159;-65
2023/09/11 00:54:31;;;;;;;;;;;;;;;22.05;84.06;101287.03;5044356;28;19936;-64
2023/09/11 00:56:56;;;;;;;;;;;;;;;22.02;83.60;101287.09;5051921;28;19912;-64
2023/09/11 00:59:21;;;;;;;;;;;;;;;21.99;84.01;101291.59;5056091;28;19913;-64
2023/09/11 01:01:47;;;;;;;;;;;;;;;21.89;84.27;101293.50;5043751;28;19913;-64
2023/09/11 01:04:13;;;;;;;;;;;;;;;21.89;84.10;101297.03;5042552;28;19933;-64
2023/09/11 01:06:38;;;;;;;;;;;;;;;21.91;84.18;101282.88;5043585;28;19960;-64
2023/09/11 01:09:03;;;;;;;;;;;;;;;21.92;83.62;101284.63;5055059;28;19912;-64
2023/09/11 01:11:29;;;;;;;;;;;;;;;21.92;83.80;101282.84;5048739;28;19943;-65
2023/09/11 01:13:54;;;;;;;;;;;;;;;21.92;84.14;101282.84;5058445;28;19964;-64
2023/09/11 01:16:19;;;;;;;;;;;;;;;21.88;84.19;101281.13;5041566;28;20066;-64
2023/09/11 01:18:53;;;;;;;;;;;;;;;21.83;83.83;101275.91;5041722;28;19996;-64
2023/09/11 01:21:48;;;;;;;;;;;;;;;21.83;84.25;101280.34;5034896;28;19913;-64
2023/09/11 01:24:26;;;;;;;;;;;;;;;21.82;83.93;101282.09;5029460;28;20020;-64
2023/09/11 01:27:10;;;;;;;;;;;;;;;21.78;84.33;101283.06;5042544;28;19913;-64
2023/09/11 01:29:37;;;;;;;;;;;;;;;21.75;84.39;101279.59;5042244;28;19913;-64
2023/09/11 01:32:05;;;;;;;;;;;;;;;21.69;84.30;101283.22;5041970;28;20142;-64
2023/09/11 01:34:30;;;;;;;;;;;;;;;21.62;84.90;101277.09;5043703;28;19916;-64
2023/09/11 01:36:55;;;;;;;;;;;;;;;21.59;84.35;101274.50;5050484;28;19913;-64
2023/09/11 01:39:20;;;;;;;;;;;;;;;21.57;84.47;101276.31;5041563;28;19951;-64
2023/09/11 01:41:46;;;;;;;;;;;;;;;21.50;84.60;101278.16;5043044;28;19920;-64
2023/09/11 01:44:18;;;;;;;;;;;;;;;21.46;84.72;101276.44;5043612;28;19909;-64
2023/09/11 01:46:44;;;;;;;;;;;;;;;21.45;84.60;101279.09;5046353;28;20141;-64
2023/09/11 01:49:10;;;;;;;;;;;;;;;21.43;85.21;101272.97;5026004;28;19913;-64
2023/09/11 01:51:37;;;;;;;;;;;;;;;21.39;85.11;101266.81;5041902;28;19974;-64
2023/09/11 01:54:02;;;;;;;;;;;;;;;21.36;85.21;101272.16;5041818;28;20066;-64
2023/09/11 01:56:28;;;;;;;;;;;;;;;21.33;85.48;101267.81;5043328;28;20154;-64
2023/09/11 01:58:54;;;;;;;;;;;;;;;21.31;84.86;101269.59;5041776;28;19925;-64
2023/09/11 02:01:20;;;;;;;;;;;;;;;21.32;85.56;101266.06;5042728;28;19920;-64
2023/09/11 02:03:45;;;;;;;;;;;;;;;21.31;85.00;101269.59;5042196;28;19928;-64
2023/09/11 02:06:10;;;;;;;;;;;;;;;21.28;85.36;101258.16;5053032;28;20097;-64
2023/09/11 02:08:35;;;;;;;;;;;;;;;21.25;85.53;101264.38;5042320;28;19924;-64
2023/09/11 02:11:00;;;;;;;;;;;;;;;21.23;85.65;101262.66;5041517;28;19913;-64
2023/09/11 02:13:26;;;;;;;;;;;;;;;21.23;85.77;101254.69;5046315;28;20155;-64
2023/09/11 02:15:51;;;;;;;;;;;;;;;21.23;85.92;101260.00;5043357;28;20098;-64
2023/09/11 02:18:17;;;;;;;;;;;;;;;21.21;85.28;101262.66;5041575;28;19913;-64
2023/09/11 02:20:47;;;;;;;;;;;;;;;21.17;85.37;101256.56;5042189;28;20147;-64
2023/09/11 02:23:12;;;;;;;;;;;;;;;21.17;85.59;101253.91;5044644;28;19984;-64
2023/09/11 02:25:38;;;;;;;;;;;;;;;21.14;85.61;101251.25;5053871;28;19913;-64
2023/09/11 02:28:03;;;;;;;;;;;;;;;21.11;85.92;101239.84;5042233;28;19948;-64
2023/09/11 02:30:28;;;;;;;;;;;;;;;21.08;85.82;101246.06;5041864;28;19913;-64
2023/09/11 02:32:53;;;;;;;;;;;;;;;21.06;86.08;101239.91;5042245;28;19964;-64
2023/09/11 02:35:18;;;;;;;;;;;;;;;21.04;85.90;101246.13;5044466;28;19932;-64
2023/09/11 02:37:44;;;;;;;;;;;;;;;20.99;85.88;101240.91;5041866;28;19913;-64
2023/09/11 02:40:09;;;;;;;;;;;;;;;20.94;86.35;101242.72;5042821;28;19948;-64
2023/09/11 02:42:34;;;;;;;;;;;;;;;20.91;86.52;101245.41;5041866;28;20110;-64
2023/09/11 02:44:59;;;;;;;;;;;;;;;20.89;86.31;101241.91;5054717;28;19988;-64
2023/09/11 02:47:25;;;;;;;;;;;;;;;20.87;86.44;101238.41;5041811;28;19937;-64
2023/09/11 02:49:50;;;;;;;;;;;;;;;20.85;86.88;101241.06;5042609;28;19980;-64
2023/09/11 02:52:15;;;;;;;;;;;;;;;20.84;86.44;101241.94;5041415;28;20163;-64
2023/09/11 02:54:40;;;;;;;;;;;;;;;20.83;86.60;101240.22;5042961;28;19971;-64
2023/09/11 02:57:05;;;;;;;;;;;;;;;20.79;86.73;101239.38;5042211;28;19936;-64
2023/09/11 02:59:33;;;;;;;;;;;;;;;20.74;86.31;101235.91;5041994;28;19913;-64
2023/09/11 03:01:58;;;;;;;;;;;;;;;20.73;86.67;101238.59;5025093;28;19955;-64
2023/09/11 03:04:23;;;;;;;;;;;;;;;20.72;86.97;101239.47;5042813;28;19987;-64
2023/09/11 03:06:48;;;;;;;;;;;;;;;20.71;86.50;101235.06;5041782;28;19913;-64
2023/09/11 03:09:13;;;;;;;;;;;;;;;20.66;86.92;101233.34;5043091;28;19913;-64
2023/09/11 03:11:39;;;;;;;;;;;;;;;20.64;86.36;101229.81;5041006;28;19913;-64
2023/09/11 03:14:04;;;;;;;;;;;;;;;20.58;87.16;101232.53;5042000;28;19913;-64
2023/09/11 03:16:29;;;;;;;;;;;;;;;20.54;86.43;101227.28;5042437;28;20055;-64
2023/09/11 03:18:55;;;;;;;;;;;;;;;20.49;86.96;101224.69;5042571;28;19913;-64
2023/09/11 03:21:20;;;;;;;;;;;;;;;20.46;86.93;101230.88;5046185;28;19973;-64
2023/09/11 03:23:45;;;;;;;;;;;;;;;20.44;87.26;101221.22;5047382;28;19920;-64
2023/09/11 03:26:14;;;;;;;;;;;;;;;20.40;87.80;101207.13;5052501;28;19910;-64
2023/09/11 03:28:39;;;;;;;;;;;;;;;20.33;87.08;101216.03;5044830;28;19913;-64
2023/09/11 03:31:04;;;;;;;;;;;;;;;20.20;87.01;101217.06;5045625;28;20162;-64
2023/09/11 03:33:30;;;;;;;;;;;;;;;20.04;87.91;101219.00;5044340;28;20131;-64
2023/09/11 03:35:55;;;;;;;;;;;;;;;19.88;88.41;101215.63;5045658;28;19933;-64
2023/09/11 03:38:20;;;;;;;;;;;;;;;19.77;88.88;101207.75;5044860;28;20162;-64
2023/09/11 03:40:46;;;;;;;;;;;;;;;19.77;89.33;101213.06;5045619;28;19921;-64
2023/09/11 03:43:11;;;;;;;;;;;;;;;19.79;89.50;101216.59;5045224;28;20201;-64
2023/09/11 03:45:36;;;;;;;;;;;;;;;19.81;89.42;101212.16;5054044;28;20102;-64
2023/09/11 03:48:01;;;;;;;;;;;;;;;19.77;89.20;101207.75;5045555;28;19909;-62
2023/09/11 03:50:26;;;;;;;;;;;;;;;19.68;89.57;101203.41;5049337;28;19914;-64
2023/09/11 03:52:52;;;;;;;;;;;;;;;19.60;89.47;101206.13;5045603;28;19940;-64
2023/09/11 03:55:17;;;;;;;;;;;;;;;19.52;90.12;101204.44;5053717;28;19924;-63
2023/09/11 03:57:42;;;;;;;;;;;;;;;19.48;89.95;101200.06;5045548;28;19916;-63
2023/09/11 04:00:07;;;;;;;;;;;;;;;19.51;89.95;101193.00;5046834;28;19984;-63
2023/09/11 04:02:33;;;;;;;;;;;;;;;19.56;90.21;101199.09;5051462;28;19925;-63
2023/09/11 04:04:58;;;;;;;;;;;;;;;19.58;89.75;101189.41;5044826;28;19920;-63
2023/09/11 04:07:23;;;;;;;;;;;;;;;19.63;89.95;101184.94;5044518;28;19975;-63
2023/09/11 04:09:49;;;;;;;;;;;;;;;19.66;90.04;101180.53;5044246;28;19913;-63
2023/09/11 04:12:16;;;;;;;;;;;;;;;19.64;89.81;101180.56;5044381;28;19945;-63
2023/09/11 04:14:41;;;;;;;;;;;;;;;19.64;89.66;101183.19;5047668;28;19913;-63
2023/09/11 04:17:10;;;;;;;;;;;;;;;19.58;89.76;101184.13;5044399;28;19972;-64
2023/09/11 04:19:35;;;;;;;;;;;;;;;19.51;89.61;101182.41;5044006;28;19920;-64
2023/09/11 04:22:00;;;;;;;;;;;;;;;19.47;89.99;101178.03;5045105;28;19909;-63
2023/09/11 04:24:25;;;;;;;;;;;;;;;19.46;89.79;101173.63;5042723;28;20171;-63
2023/09/11 04:26:51;;;;;;;;;;;;;;;19.44;90.01;101173.66;5045711;28;19917;-63
2023/09/11 04:29:16;;;;;;;;;;;;;;;19.42;90.17;101177.19;5043376;28;19921;-63
2023/09/11 04:31:41;;;;;;;;;;;;;;;19.40;90.06;101171.03;5043961;28;19961;-63
2023/09/11 04:34:06;;;;;;;;;;;;;;;19.43;90.18;101168.38;5027779;28;19921;-63
2023/09/11 04:36:31;;;;;;;;;;;;;;;19.42;90.09;101164.88;5044983;28;19972;-63
2023/09/11 04:38:57;;;;;;;;;;;;;;;19.39;90.28;101164.00;5044481;28;20004;-63
2023/09/11 04:41:22;;;;;;;;;;;;;;;19.31;90.39;101157.91;5044698;28;19913;-63
2023/09/11 04:43:47;;;;;;;;;;;;;;;19.27;91.04;101165.84;5045120;28;20041;-63
2023/09/11 04:46:12;;;;;;;;;;;;;;;19.22;90.60;101169.41;5044573;28;19913;-63
2023/09/11 04:48:37;;;;;;;;;;;;;;;19.18;90.69;101179.13;5043323;28;19925;-63
2023/09/11 04:51:05;;;;;;;;;;;;;;;19.19;91.11;101172.06;5042507;28;21282;-63
2023/09/11 04:53:30;;;;;;;;;;;;;;;19.20;90.80;101177.34;5044997;28;20208;-63
2023/09/11 04:55:56;;;;;;;;;;;;;;;19.20;90.83;101179.13;5043829;28;19913;-63
2023/09/11 04:58:21;;;;;;;;;;;;;;;19.21;91.01;101176.47;5044456;28;19913;-63
2023/09/11 05:00:47;;;;;;;;;;;;;;;19.22;90.89;101186.16;5042796;28;20063;-63
2023/09/11 05:03:12;;;;;;;;;;;;;;;19.22;91.03;101178.22;5043712;28;19980;-63
2023/09/11 05:05:40;;;;;;;;;;;;;;;19.20;90.96;101176.47;5043112;28;19919;-63
2023/09/11 05:08:06;;;;;;;;;;;;;;;19.20;90.91;101187.91;5044233;28;20233;-63
2023/09/11 05:10:31;;;;;;;;;;;;;;;19.19;91.21;101180.88;5043246;28;19924;-63
2023/09/11 05:12:57;;;;;;;;;;;;;;;19.19;91.56;101180.88;5043966;28;19951;-63
2023/09/11 05:15:22;;;;;;;;;;;;;;;19.20;91.39;101179.13;5054075;28;19928;-63
2023/09/11 05:17:47;;;;;;;;;;;;;;;19.21;91.22;101191.44;5050316;28;19936;-63
2023/09/11 05:20:12;;;;;;;;;;;;;;;19.22;91.18;101188.78;5048538;28;20213;-63
2023/09/11 05:22:39;;;;;;;;;;;;;;;19.20;91.31;101179.97;5043918;28;20019;-63
2023/09/11 05:25:04;;;;;;;;;;;;;;;19.20;91.19;101190.53;5050503;28;19908;-63
2023/09/11 05:27:29;;;;;;;;;;;;;;;19.20;91.02;101187.91;5054035;28;19913;-63
2023/09/11 05:29:55;;;;;;;;;;;;;;;19.17;91.14;101190.56;5043843;28;19956;-63
2023/09/11 05:32:20;;;;;;;;;;;;;;;19.13;91.40;101191.47;5042984;28;20144;-63
2023/09/11 05:34:45;;;;;;;;;;;;;;;19.11;91.52;101186.19;5048946;28;19984;-63
2023/09/11 05:37:10;;;;;;;;;;;;;;;19.07;91.63;101192.41;5053492;28;19954;-63
2023/09/11 05:39:35;;;;;;;;;;;;;;;19.03;91.87;101192.41;5042638;28;19913;-63
2023/09/11 05:42:01;;;;;;;;;;;;;;;19.03;92.10;101202.97;5043394;28;19909;-63
2023/09/11 05:44:26;;;;;;;;;;;;;;;19.00;91.94;101203.00;5028588;28;19916;-64
2023/09/11 05:46:51;;;;;;;;;;;;;;;18.99;92.03;101201.25;5048414;28;19920;-63
2023/09/11 05:49:16;;;;;;;;;;;;;;;19.01;92.17;101204.78;5043295;28;19913;-63
2023/09/11 05:51:41;;;;;;;;;;;;;;;19.00;92.25;101206.53;5043388;28;19944;-63
2023/09/11 05:54:07;;;;;;;;;;;;;;;19.03;92.20;101208.25;5044022;28;20059;-63
2023/09/11 05:56:32;;;;;;;;;;;;;;;19.02;92.57;101210.03;5050355;28;19928;-63
2023/09/11 05:58:57;;;;;;;;;;;;;;;19.02;92.55;101207.41;5043338;28;19925;-63
2023/09/11 06:01:22;;;;;;;;;;;;;;;19.03;92.69;101208.25;5051507;28;19916;-63
2023/09/11 06:03:47;;;;;;;;;;;;;;;19.02;92.96;101211.81;5043361;28;19951;-63
2023/09/11 06:06:13;;;;;;;;;;;;;;;19.03;93.11;101211.81;5050139;28;20146;-63
2023/09/11 06:08:38;;;;;;;;;;;;;;;19.05;93.22;101217.06;5043213;28;20178;-63
2023/09/11 06:11:03;;;;;;;;;;;;;;;19.07;92.85;101218.84;5043158;28;19913;-63
2023/09/11 06:13:31;;;;;;;;;;;;;;;19.09;92.19;101213.53;5042971;28;19913;-63
2023/09/11 06:15:56;;;;;;;;;;;;;;;19.09;93.37;101218.81;5047946;28;19979;-63
2023/09/11 06:18:21;;;;;;;;;;;;;;;19.14;93.78;101221.44;5039385;28;19921;-63
2023/09/11 06:20:46;;;;;;;;;;;;;;;19.17;94.38;101218.75;5043010;28;19910;-63
2023/09/11 06:23:12;;;;;;;;;;;;;;;19.21;94.09;101221.38;5040681;28;19913;-63
2023/09/11 06:25:38;;;;;;;;;;;;;;;19.27;94.52;101223.09;5041891;28;19913;-63
2023/09/11 06:28:03;;;;;;;;;;;;;;;19.32;93.95;101215.13;5049115;28;20081;-63
2023/09/11 06:30:28;;;;;;;;;;;;;;;19.37;93.46;101218.66;5042733;28;20048;-63
2023/09/11 06:32:54;;;;;;;;;;;;;;;19.42;95.14;101216.81;5041759;28;19913;-63
2023/09/11 06:35:19;;;;;;;;;;;;;;;19.49;94.75;101215.03;5041402;28;19913;-63
2023/09/11 06:37:44;;;;;;;;;;;;;;;19.55;94.22;101214.97;5042502;28;19917;-63
2023/09/11 06:40:10;;;;;;;;;;;;;;;19.61;93.38;101225.50;5042749;28;20173;-63
2023/09/11 06:42:35;;;;;;;;;;;;;;;19.68;92.77;101221.03;5043025;28;19925;-63
2023/09/11 06:45:00;;;;;;;;;;;;;;;19.72;93.17;101222.78;5042261;28;20063;-63
2023/09/11 06:47:25;;;;;;;;;;;;;;;19.78;93.15;101230.66;5049890;28;19984;-63
2023/09/11 06:49:50;;;;;;;;;;;;;;;19.82;93.18;101227.13;5042407;28;19913;-63
2023/09/11 06:52:16;;;;;;;;;;;;;;;19.88;92.48;101227.06;5052787;28;20186;-63
2023/09/11 06:54:41;;;;;;;;;;;;;;;19.92;91.75;101223.50;5044283;28;19976;-63
2023/09/11 06:57:07;;;;;;;;;;;;;;;19.96;92.12;101233.16;5054497;28;19913;-63
2023/09/11 06:59:33;;;;;;;;;;;;;;;19.98;91.86;101220.78;5046736;28;19953;-63
2023/09/11 07:01:59;;;;;;;;;;;;;;;20.02;92.69;101232.25;5044825;28;19920;-63
2023/09/11 07:04:27;;;;;;;;;;;;;;;20.06;91.64;101230.44;5044203;28;19913;-63
2023/09/11 07:06:53;;;;;;;;;;;;;;;20.11;91.70;101232.13;5046445;28;20043;-63
2023/09/11 07:09:19;;;;;;;;;;;;;;;20.15;91.82;101217.13;5046501;28;19920;-63
2023/09/11 07:11:45;;;;;;;;;;;;;;;20.18;92.55;101214.44;5044827;28;19929;-63
2023/09/11 07:14:12;;;;;;;;;;;;;;;20.24;93.26;101206.44;5048329;28;20044;-63
2023/09/11 07:16:38;;;;;;;;;;;;;;;20.30;91.71;101213.44;5043948;28;19920;-63
2023/09/11 07:19:03;;;;;;;;;;;;;;;20.37;92.77;101203.66;5046620;28;19991;-63
2023/09/11 07:21:28;;;;;;;;;;;;;;;20.43;92.13;101208.88;5051355;28;19913;-63
2023/09/11 07:23:54;;;;;;;;;;;;;;;20.52;91.22;101206.13;5044186;28;19959;-63
2023/09/11 07:26:19;;;;;;;;;;;;;;;20.60;92.67;101201.63;5049873;28;19909;-63
2023/09/11 07:28:54;;;;;;;;;;;;;;;20.67;91.63;101207.75;5045079;28;19913;-63
2023/09/11 07:31:20;;;;;;;;;;;;;;;20.77;90.94;101208.50;5046040;28;20442;-63
2023/09/11 07:33:45;;;;;;;;;;;;;;;20.83;91.74;101211.09;5051976;28;19955;-63
2023/09/11 07:36:10;;;;;;;;;;;;;;;20.90;90.75;101215.41;5044635;28;19921;-63
2023/09/11 07:38:35;;;;;;;;;;;;;;;20.98;91.03;101215.28;5043803;28;19925;-63
2023/09/11 07:41:00;;;;;;;;;;;;;;;21.07;90.25;101222.22;5044573;28;20174;-63
2023/09/11 07:43:26;;;;;;;;;;;;;;;21.18;90.53;101220.31;5042293;28;20036;-63
2023/09/11 07:45:51;;;;;;;;;;;;;;;21.24;89.98;101219.34;5042325;28;19913;-63
2023/09/11 07:48:16;;;;;;;;;;;;;;;21.33;89.69;101220.09;5044320;28;19967;-63
2023/09/11 07:50:41;;;;;;;;;;;;;;;21.43;90.04;101231.41;5040796;28;20223;-63
2023/09/11 07:53:06;;;;;;;;;;;;;;;21.52;89.26;101233.06;5044963;28;19909;-64
2023/09/11 07:55:35;;;;;;;;;;;;;;;21.61;89.55;101230.28;5043824;28;20067;-64
2023/09/11 07:58:00;;;;;;;;;;;;;;;21.78;89.76;101231.78;5045564;28;19909;-64
2023/09/11 08:00:30;;;;;;;;;;;;;;;21.88;88.88;101236.94;5048961;28;19913;-64
2023/09/11 08:02:55;;;;;;;;;;;;;;;22.00;89.00;101241.13;5044179;28;19952;-64
2023/09/11 08:05:20;;;;;;;;;;;;;;;22.10;88.99;101244.50;5043528;28;19913;-64
2023/09/11 08:07:46;;;;;;;;;;;;;;;22.23;88.17;101245.13;5042743;28;19921;-64
2023/09/11 08:10:11;;;;;;;;;;;;;;;22.31;87.79;101248.53;5040163;28;19980;-64
2023/09/11 08:12:36;;;;;;;;;;;;;;;;;;5043663;28;20036;-64
2023/09/11 08:15:02;;;;;;;;;;;;;;;22.54;87.37;101247.25;5042590;28;19960;-64
2023/09/11 08:17:28;;;;;;;;;;;;;;;22.60;87.50;101248.91;5043708;28;19972;-64
2023/09/11 08:19:54;;;;;;;;;;;;;;;22.68;87.23;101249.63;5042235;28;19920;-64
2023/09/11 08:22:19;;;;;;;;;;;;;;;22.82;87.38;101252.00;5041688;28;19913;-64
2023/09/11 08:24:44;;;;;;;;;;;;;;;22.99;86.42;101255.16;5043040;28;20066;-64
2023/09/11 08:27:09;;;;;;;;;;;;;;;23.15;86.19;101255.75;5024695;28;20139;-64
2023/09/11 08:29:35;;;;;;;;;;;;;;;23.32;86.22;101258.03;5042090;28;19944;-64
2023/09/11 08:32:00;;;;;;;;;;;;;;;23.44;85.95;101238.25;5047925;28;19967;-65
2023/09/11 08:34:25;;;;;;;;;;;;;;;23.50;85.97;101242.53;5049346;28;19913;-65
2023/09/11 08:36:51;;;;;;;;;;;;;;;23.60;85.47;101247.59;5046190;28;19913;-65
2023/09/11 08:39:16;;;;;;;;;;;;;;;23.73;84.72;101244.66;5043078;28;19920;-64
2023/09/11 08:41:42;;;;;;;;;;;;;;;23.91;83.71;101251.31;5042475;28;20197;-66
2023/09/11 08:44:08;;;;;;;;;;;;;;;23.89;83.63;101245.16;5039665;28;19948;-65
2023/09/11 08:46:34;;;;;;;;;;;;;;;23.96;83.68;101238.78;5034305;28;19951;-65
2023/09/11 08:49:02;;;;;;;;;;;;;;;24.15;83.37;101251.59;5033002;28;19958;-66
2023/09/11 08:51:31;;;;;;;;;;;;;;;24.27;81.96;101251.25;5023182;28;19928;-66
2023/09/11 08:53:59;;;;;;;;;;;;;;;24.39;81.47;101250.94;5014037;28;20856;-66
2023/09/11 08:56:24;;;;;;;;;;;;;;;24.45;81.39;101250.75;5019926;28;19913;-66
2023/09/11 08:58:51;;;;;;;;;;;;;;;24.54;81.74;101254.97;5022389;28;19914;-66
2023/09/11 09:01:16;;;;;;;;;;;;;;;24.68;81.76;101243.94;5019060;28;20100;-67
2023/09/11 09:03:42;;;;;;;;;;;;;;;24.81;80.99;101248.00;5018892;28;20135;-66
2023/09/11 09:06:07;;;;;;;;;;;;;;;24.89;80.80;101246.88;5022279;28;19913;-65
2023/09/11 09:08:33;;;;;;;;;;;;;;;25.06;81.84;101249.91;5022318;28;19937;-67
2023/09/11 09:10:58;;;;;;;;;;;;;;;25.24;81.25;101242.28;5024065;28;19948;-67
2023/09/11 09:13:24;;;;;;;;;;;;;;;25.37;80.33;101240.97;5024015;28;20179;-67
2023/09/11 09:15:49;;;;;;;;;;;;;;;25.49;80.18;101239.72;5024058;28;20063;-66
2023/09/11 09:18:15;;;;;;;;;;;;;;;25.66;76.74;101239.16;5023447;28;20226;-67
2023/09/11 09:20:40;;;;;;;;;;;;;;;25.78;76.46;101245.88;5020587;28;19924;-67
2023/09/11 09:23:06;;;;;;;;;;;;;;;25.85;75.90;101242.97;5021378;28;20067;-67
2023/09/11 09:25:31;;;;;;;;;;;;;;;25.90;76.60;101245.47;5022092;28;19914;-67
2023/09/11 09:27:58;;;;;;;;;;;;;;;26.03;74.61;101245.97;5021124;28;19925;-67
2023/09/11 09:30:27;;;;;;;;;;;;;;;26.11;75.53;101246.56;5025207;28;19914;-67
2023/09/11 09:32:52;;;;;;;;;;;;;;;26.22;74.58;101251.53;5021092;28;20079;-67
2023/09/11 09:35:25;;;;;;;;;;;;;;;26.42;73.70;101256.16;5022262;28;20001;-67
2023/09/11 09:37:52;;;;;;;;;;;;;;;26.60;74.23;101249.25;5024442;28;19913;-67
2023/09/11 09:40:30;;;;;;;;;;;;;;;26.71;73.17;101255.13;5020585;28;19922;-67
2023/09/11 09:42:56;;;;;;;;;;;;;;;26.80;73.58;101243.19;5020798;28;19988;-67
2023/09/11 09:45:33;;;;;;;;;;;;;;;26.89;71.99;101241.97;5022343;28;20067;-67
2023/09/11 09:48:08;;;;;;;;;;;;;;;27.00;70.11;101238.91;5023228;28;19920;-67
2023/09/11 09:50:52;;;;;;;;;;;;;;;27.01;72.25;101248.66;5024013;28;20607;-67
2023/09/11 09:53:24;;;;;;;;;;;;;;;27.09;72.29;101249.22;5024980;28;19929;-67
2023/09/11 09:58:20;;;;;;;;;;;;;;;27.38;69.11;101244.56;5034149;28;20268;-65
2023/09/11 10:00:49;;;;;;;;;;;;;;;27.46;68.30;101244.22;5039902;28;19920;-65
2023/09/11 10:03:14;;;;;;;;;;;;;;;27.49;67.82;101249.47;5040190;28;19914;-65
2023/09/11 10:05:47;;;;;;;;;;;;;;;27.51;68.01;101243.13;5042884;28;19959;-65
2023/09/11 10:08:13;;;;;;;;;;;;;;;27.57;68.04;101242.00;5038431;28;19921;-58
2023/09/11 10:10:39;;;;;;;;;;;;;;;27.67;69.01;101245.16;5035609;28;19929;-58
2023/09/11 10:13:04;;;;;;;;;;;;;;;27.74;67.44;101247.50;5038672;28;19939;-59
2023/09/11 10:15:33;;;;;;;;;;;;;;;27.79;66.47;101246.44;5039713;28;19921;-61
2023/09/11 10:17:59;;;;;;;;;;;;;;;27.87;66.72;101241.66;5039459;28;20020;-60
2023/09/11 10:20:25;;;;;;;;;;;;;;;27.94;66.77;101246.66;5038850;28;20197;-60
2023/09/11 10:22:52;;;;;;;;;;;;;;;28.06;64.08;101244.44;5038764;28;19909;-60
2023/09/11 10:25:22;;;;;;;;;;;;;;;28.15;65.35;101244.03;5042758;28;20054;-60
2023/09/11 10:27:53;;;;;;;;;;;;;;;28.25;64.26;101241.81;5033888;28;19913;-60
2023/09/11 10:30:21;;;;;;;;;;;;;;;28.35;62.33;101236.91;5033153;28;20110;-60
2023/09/11 10:33:06;;;;;;;;;;;;;;;28.31;62.15;101235.31;5027722;28;19913;-59
2023/09/11 10:35:34;;;;;;;;;;;;;;;28.27;63.46;101230.09;5040972;28;19914;-61
2023/09/11 10:38:00;;;;;;;;;;;;;;;28.40;60.78;101224.16;5040803;28;19928;-60
2023/09/11 10:40:32;;;;;;;;;;;;;;;28.51;60.99;101223.69;5040646;28;19913;-60
2023/09/11 10:42:59;;;;;;;;;;;;;;;28.58;60.30;101220.66;5039832;28;19912;-60
2023/09/11 10:45:28;;;;;;;;;;;;;;;28.67;59.93;101223.88;5041339;28;19913;-60
2023/09/11 10:47:54;;;;;;;;;;;;;;;28.71;60.18;101228.19;5040681;28;19932;-61
2023/09/11 10:50:19;;;;;;;;;;;;;;;28.79;60.30;101224.19;5040320;28;20099;-60
2023/09/11 10:52:44;;;;;;;;;;;;;;;28.78;59.51;101218.91;5040111;28;20058;-60
2023/09/11 10:55:10;;;;;;;;;;;;;;;28.83;59.73;101224.03;5045482;28;20005;-60
2023/09/11 10:57:35;;;;;;;;;;;;;;;28.92;57.88;101221.81;5034629;28;19929;-61
2023/09/11 11:00:01;;;;;;;;;;;;;;;28.96;56.90;101220.69;5033652;28;19913;-60
2023/09/11 11:02:29;;;;;;;;;;;;;;;28.96;55.95;101220.69;5027019;28;19914;-60
2023/09/11 11:04:54;;;;;;;;;;;;;;;28.87;57.72;101215.78;5025449;28;19921;-61
2023/09/11 11:07:19;;;;;;;;;;;;;;;28.92;57.44;101213.75;5027475;28;19921;-61
2023/09/11 11:09:47;;;;;;;;;;;;;;;28.97;58.38;101208.16;5031823;28;19913;-60
2023/09/11 11:12:18;;;;;;;;;;;;;;;29.05;57.57;101210.47;5025522;28;19948;-60
2023/09/11 11:15:03;;;;;;;;;;;;;;;29.21;58.35;101215.97;5028266;28;19920;-60
2023/09/11 11:17:36;;;;;;;;;;;;;;;29.35;55.47;101212.63;5025871;28;19937;-60
2023/09/11 11:20:02;;;;;;;;;;;;;;;29.38;56.53;101220.53;5025946;28;20134;-61
2023/09/11 11:22:30;;;;;;;;;;;;;;;29.42;57.43;101224.81;5031651;28;19920;-61
2023/09/11 11:24:55;;;;;;;;;;;;;;;29.47;56.94;101220.97;5028406;28;19914;-60
2023/09/11 11:27:20;;;;;;;;;;;;;;;29.55;56.72;101217.03;5027296;28;19985;-60
2023/09/11 11:29:46;;;;;;;;;;;;;;;29.55;58.15;101212.50;5028173;28;19963;-60
2023/09/11 11:32:12;;;;;;;;;;;;;;;29.63;58.13;101206.72;5026506;28;20222;-60
2023/09/11 11:34:39;;;;;;;;;;;;;;;29.77;58.03;101203.34;5027811;28;19913;-61
2023/09/11 11:37:04;;;;;;;;;;;;;;;29.95;57.85;101207.81;5016408;28;19909;-61
2023/09/11 11:39:33;;;;;;;;;;;;;;;30.10;56.64;101202.59;5017779;28;19913;-60
2023/09/11 11:42:00;;;;;;;;;;;;;;;30.22;56.52;101209.13;5021584;28;19914;-60
2023/09/11 11:44:26;;;;;;;;;;;;;;;30.19;57.21;101207.47;5022903;28;19913;-60
2023/09/11 11:46:52;;;;;;;;;;;;;;;30.30;53.58;101197.00;5022981;28;19984;-60
2023/09/11 11:49:19;;;;;;;;;;;;;;;30.35;54.81;101200.28;5032893;28;19913;-60
2023/09/11 11:51:44;;;;;;;;;;;;;;;30.46;54.32;101206.94;5027586;28;19967;-60
2023/09/11 11:54:20;;;;;;;;;;;;;;;30.46;55.30;101197.06;5027553;28;20230;-60
2023/09/11 11:56:45;;;;;;;;;;;;;;;30.61;53.42;101200.72;5028352;28;20071;-61
2023/09/11 11:59:11;;;;;;;;;;;;;;;30.69;52.64;101202.97;5033118;28;19949;-60
2023/09/11 12:01:37;;;;;;;;;;;;;;;30.55;51.82;101198.38;5023544;28;19960;-60
2023/09/11 12:04:04;;;;;;;;;;;;;;;30.53;51.44;101211.03;5020545;28;19952;-60
2023/09/11 12:06:29;;;;;;;;;;;;;;;30.52;50.33;101206.63;5031106;28;19941;-60
2023/09/11 12:08:54;;;;;;;;;;;;;;;30.43;51.55;101204.41;5007421;28;19921;-61
2023/09/11 12:11:19;;;;;;;;;;;;;;;30.58;51.95;101206.28;5027451;28;19984;-60
2023/09/11 12:13:45;;;;;;;;;;;;;;;30.57;51.65;101207.22;5024867;28;19914;-60
2023/09/11 12:16:11;;;;;;;;;;;;;;;30.59;53.01;101199.97;5025533;28;20063;-60
2023/09/11 12:18:40;;;;;;;;;;;;;;;30.57;52.91;101209.91;5025151;28;19909;-60
2023/09/11 12:21:06;;;;;;;;;;;;;;;30.66;52.72;101200.47;5025011;28;19915;-60
2023/09/11 12:23:32;;;;;;;;;;;;;;;30.72;53.44;101202.84;5011940;28;19909;-60
2023/09/11 12:25:58;;;;;;;;;;;;;;;30.85;54.21;101195.81;5025199;28;19952;-60
2023/09/11 12:28:24;;;;;;;;;;;;;;;30.99;54.27;101202.22;5025022;28;19956;-60
2023/09/11 12:30:50;;;;;;;;;;;;;;;31.00;54.20;101202.16;5008846;28;19914;-61
2023/09/11 12:33:21;;;;;;;;;;;;;;;31.13;51.83;101198.78;5005428;28;19933;-61
2023/09/11 12:35:46;;;;;;;;;;;;;;;31.10;50.62;101202.53;4988000;28;19953;-62